sensor_id;sensor_type;location;lat;lon;timestamp;P1;durP1;ratioP1;P2;durP2;ratioP2
14611;SDS011;7392;52.078;11.650;2023-06-14T00:02:02;0.70;;;0.70;;
14611;SDS011;7392;52.078;11.650;2023-06-14T00:04:30;0.83;;;0.83;;
14611;SDS011;7392;52.078;11.650;2023-06-14T00:06:57;0.70;;;0.70;;
14611;SDS011;7392;52.078;11.650;2023-06-14T00:09:26;1.00;;;0.63;;
14611;SDS011;7392;52.078;11.650;2023-06-14T00:11:53;0.70;;;0.70;;
14611;SDS011;7392;52.078;11.650;2023-06-14T00:14:21;0.63;;;0.63;;
14611;SDS011;7392;52.078;11.650;2023-06-14T00:16:50;1.30;;;0.73;;
14611;SDS011;7392;52.078;11.650;2023-06-14T00:19:18;0.80;;;0.80;;
14611;SDS011;7392;52.078;11.650;2023-06-14T00:21:47;0.70;;;0.70;;
14611;SDS011;7392;52.078;11.650;2023-06-14T00:24:15;0.70;;;0.70;;
14611;SDS011;7392;52.078;11.650;2023-06-14T00:26:43;0.80;;;0.80;;
14611;SDS011;7392;52.078;11.650;2023-06-14T00:29:10;0.83;;;0.70;;
14611;SDS011;7392;52.078;11.650;2023-06-14T00:31:38;0.70;;;0.70;;
14611;SDS011;7392;52.078;11.650;2023-06-14T00:34:07;0.73;;;0.73;;
14611;SDS011;7392;52.078;11.650;2023-06-14T00:36:35;0.67;;;0.67;;
14611;SDS011;7392;52.078;11.650;2023-06-14T00:39:03;0.80;;;0.70;;
14611;SDS011;7392;52.078;11.650;2023-06-14T00:41:31;0.57;;;0.57;;
14611;SDS011;7392;52.078;11.650;2023-06-14T00:43:58;0.70;;;0.70;;
14611;SDS011;7392;52.078;11.650;2023-06-14T00:46:26;0.70;;;0.60;;
14611;SDS011;7392;52.078;11.650;2023-06-14T00:48:54;0.77;;;0.60;;
14611;SDS011;7392;52.078;11.650;2023-06-14T00:51:25;0.70;;;0.70;;
14611;SDS011;7392;52.078;11.650;2023-06-14T00:53:52;0.80;;;0.80;;
14611;SDS011;7392;52.078;11.650;2023-06-14T00:56:20;1.73;;;0.80;;
14611;SDS011;7392;52.078;11.650;2023-06-14T00:58:50;0.70;;;0.70;;
14611;SDS011;7392;52.078;11.650;2023-06-14T01:01:18;0.73;;;0.70;;
14611;SDS011;7392;52.078;11.650;2023-06-14T01:03:46;0.70;;;0.70;;
14611;SDS011;7392;52.078;11.650;2023-06-14T01:06:15;0.80;;;0.80;;
14611;SDS011;7392;52.078;11.650;2023-06-14T01:09:03;0.90;;;0.90;;
14611;SDS011;7392;52.078;11.650;2023-06-14T01:11:38;0.83;;;0.70;;
14611;SDS011;7392;52.078;11.650;2023-06-14T01:14:15;0.83;;;0.83;;
14611;SDS011;7392;52.078;11.650;2023-06-14T01:16:44;0.70;;;0.70;;
14611;SDS011;7392;52.078;11.650;2023-06-14T01:19:14;0.70;;;0.70;;
14611;SDS011;7392;52.078;11.650;2023-06-14T01:21:43;0.80;;;0.80;;
14611;SDS011;7392;52.078;11.650;2023-06-14T01:24:12;0.70;;;0.70;;
14611;SDS011;7392;52.078;11.650;2023-06-14T01:26:39;0.83;;;0.83;;
14611;SDS011;7392;52.078;11.650;2023-06-14T01:29:12;0.90;;;0.90;;
14611;SDS011;7392;52.078;11.650;2023-06-14T01:31:44;1.00;;;0.90;;
14611;SDS011;7392;52.078;11.650;2023-06-14T01:34:13;0.70;;;0.70;;
14611;SDS011;7392;52.078;11.650;2023-06-14T01:36:42;1.00;;;0.90;;
14611;SDS011;7392;52.078;11.650;2023-06-14T01:39:14;0.80;;;0.77;;
14611;SDS011;7392;52.078;11.650;2023-06-14T01:41:42;0.80;;;0.80;;
14611;SDS011;7392;52.078;11.650;2023-06-14T01:44:12;0.90;;;0.90;;
14611;SDS011;7392;52.078;11.650;2023-06-14T01:46:42;1.67;;;0.83;;
14611;SDS011;7392;52.078;11.650;2023-06-14T01:49:10;1.03;;;0.80;;
14611;SDS011;7392;52.078;11.650;2023-06-14T01:51:38;1.00;;;1.00;;
14611;SDS011;7392;52.078;11.650;2023-06-14T01:54:07;0.70;;;0.70;;
14611;SDS011;7392;52.078;11.650;2023-06-14T01:56:38;0.97;;;0.87;;
14611;SDS011;7392;52.078;11.650;2023-06-14T01:59:06;0.90;;;0.90;;
14611;SDS011;7392;52.078;11.650;2023-06-14T02:01:34;1.00;;;0.90;;
14611;SDS011;7392;52.078;11.650;2023-06-14T02:04:03;0.80;;;0.80;;
14611;SDS011;7392;52.078;11.650;2023-06-14T02:06:30;1.00;;;0.80;;
14611;SDS011;7392;52.078;11.650;2023-06-14T02:09:00;0.70;;;0.70;;
14611;SDS011;7392;52.078;11.650;2023-06-14T02:11:29;1.00;;;0.90;;
14611;SDS011;7392;52.078;11.650;2023-06-14T02:13:58;0.90;;;0.80;;
14611;SDS011;7392;52.078;11.650;2023-06-14T02:16:26;0.70;;;0.70;;
14611;SDS011;7392;52.078;11.650;2023-06-14T02:18:56;0.70;;;0.70;;
14611;SDS011;7392;52.078;11.650;2023-06-14T02:21:24;1.10;;;1.00;;
14611;SDS011;7392;52.078;11.650;2023-06-14T02:23:51;1.07;;;0.97;;
14611;SDS011;7392;52.078;11.650;2023-06-14T02:26:19;0.90;;;0.90;;
14611;SDS011;7392;52.078;11.650;2023-06-14T02:28:48;1.10;;;1.00;;
14611;SDS011;7392;52.078;11.650;2023-06-14T02:31:17;1.00;;;0.83;;
14611;SDS011;7392;52.078;11.650;2023-06-14T02:33:47;0.73;;;0.73;;
14611;SDS011;7392;52.078;11.650;2023-06-14T02:36:15;0.80;;;0.80;;
14611;SDS011;7392;52.078;11.650;2023-06-14T02:38:43;1.20;;;0.97;;
14611;SDS011;7392;52.078;11.650;2023-06-14T02:41:11;0.97;;;0.90;;
14611;SDS011;7392;52.078;11.650;2023-06-14T02:43:39;0.90;;;0.80;;
14611;SDS011;7392;52.078;11.650;2023-06-14T02:46:06;0.83;;;0.80;;
14611;SDS011;7392;52.078;11.650;2023-06-14T02:48:35;1.47;;;0.80;;
14611;SDS011;7392;52.078;11.650;2023-06-14T02:51:03;0.83;;;0.83;;
14611;SDS011;7392;52.078;11.650;2023-06-14T02:53:32;1.00;;;0.90;;
14611;SDS011;7392;52.078;11.650;2023-06-14T02:56:00;1.07;;;0.97;;
14611;SDS011;7392;52.078;11.650;2023-06-14T02:58:30;0.90;;;0.90;;
14611;SDS011;7392;52.078;11.650;2023-06-14T03:00:59;1.07;;;0.97;;
14611;SDS011;7392;52.078;11.650;2023-06-14T03:03:30;1.63;;;1.00;;
14611;SDS011;7392;52.078;11.650;2023-06-14T03:05:59;0.90;;;0.90;;
14611;SDS011;7392;52.078;11.650;2023-06-14T03:08:33;1.10;;;1.00;;
14611;SDS011;7392;52.078;11.650;2023-06-14T03:11:10;1.03;;;0.93;;
14611;SDS011;7392;52.078;11.650;2023-06-14T03:13:39;1.27;;;1.13;;
14611;SDS011;7392;52.078;11.650;2023-06-14T03:16:07;1.10;;;1.00;;
14611;SDS011;7392;52.078;11.650;2023-06-14T03:18:38;1.13;;;1.03;;
14611;SDS011;7392;52.078;11.650;2023-06-14T03:21:08;1.17;;;1.07;;
14611;SDS011;7392;52.078;11.650;2023-06-14T03:23:42;1.20;;;1.10;;
14611;SDS011;7392;52.078;11.650;2023-06-14T03:26:17;1.13;;;1.03;;
14611;SDS011;7392;52.078;11.650;2023-06-14T03:28:49;1.20;;;1.10;;
14611;SDS011;7392;52.078;11.650;2023-06-14T03:31:18;1.30;;;1.20;;
14611;SDS011;7392;52.078;11.650;2023-06-14T03:33:46;1.30;;;1.20;;
14611;SDS011;7392;52.078;11.650;2023-06-14T03:36:15;1.30;;;1.20;;
14611;SDS011;7392;52.078;11.650;2023-06-14T03:38:44;1.20;;;1.10;;
14611;SDS011;7392;52.078;11.650;2023-06-14T03:41:14;1.60;;;0.93;;
14611;SDS011;7392;52.078;11.650;2023-06-14T03:43:42;1.20;;;1.10;;
14611;SDS011;7392;52.078;11.650;2023-06-14T03:46:10;1.10;;;1.00;;
14611;SDS011;7392;52.078;11.650;2023-06-14T03:48:38;1.47;;;1.20;;
14611;SDS011;7392;52.078;11.650;2023-06-14T03:51:06;1.40;;;1.17;;
14611;SDS011;7392;52.078;11.650;2023-06-14T03:53:37;1.23;;;1.13;;
14611;SDS011;7392;52.078;11.650;2023-06-14T03:56:26;1.23;;;1.10;;
14611;SDS011;7392;52.078;11.650;2023-06-14T03:58:54;1.20;;;1.10;;
14611;SDS011;7392;52.078;11.650;2023-06-14T04:01:24;1.20;;;1.10;;
14611;SDS011;7392;52.078;11.650;2023-06-14T04:03:57;1.23;;;1.13;;
14611;SDS011;7392;52.078;11.650;2023-06-14T04:06:27;1.33;;;1.23;;
14611;SDS011;7392;52.078;11.650;2023-06-14T04:09:00;1.47;;;1.00;;
14611;SDS011;7392;52.078;11.650;2023-06-14T04:11:30;0.90;;;0.90;;
14611;SDS011;7392;52.078;11.650;2023-06-14T04:13:58;0.90;;;0.90;;
14611;SDS011;7392;52.078;11.650;2023-06-14T04:16:26;1.43;;;1.23;;
14611;SDS011;7392;52.078;11.650;2023-06-14T04:18:55;1.20;;;1.10;;
14611;SDS011;7392;52.078;11.650;2023-06-14T04:21:24;2.43;;;1.20;;
14611;SDS011;7392;52.078;11.650;2023-06-14T04:23:55;1.43;;;1.20;;
14611;SDS011;7392;52.078;11.650;2023-06-14T04:26:28;1.50;;;1.40;;
14611;SDS011;7392;52.078;11.650;2023-06-14T04:28:57;1.60;;;1.40;;
14611;SDS011;7392;52.078;11.650;2023-06-14T04:31:30;1.50;;;1.40;;
14611;SDS011;7392;52.078;11.650;2023-06-14T04:34:00;1.60;;;1.30;;
14611;SDS011;7392;52.078;11.650;2023-06-14T04:36:32;1.47;;;1.20;;
14611;SDS011;7392;52.078;11.650;2023-06-14T04:39:03;1.63;;;1.53;;
14611;SDS011;7392;52.078;11.650;2023-06-14T04:41:33;1.20;;;1.10;;
14611;SDS011;7392;52.078;11.650;2023-06-14T04:44:02;1.37;;;1.27;;
14611;SDS011;7392;52.078;11.650;2023-06-14T04:46:37;1.20;;;1.10;;
14611;SDS011;7392;52.078;11.650;2023-06-14T04:49:15;1.57;;;1.33;;
14611;SDS011;7392;52.078;11.650;2023-06-14T04:51:44;1.47;;;1.23;;
14611;SDS011;7392;52.078;11.650;2023-06-14T04:54:13;2.27;;;1.67;;
14611;SDS011;7392;52.078;11.650;2023-06-14T04:56:43;1.60;;;1.50;;
14611;SDS011;7392;52.078;11.650;2023-06-14T04:59:11;1.50;;;1.40;;
14611;SDS011;7392;52.078;11.650;2023-06-14T05:01:41;1.57;;;1.40;;
14611;SDS011;7392;52.078;11.650;2023-06-14T05:04:14;1.43;;;1.33;;
14611;SDS011;7392;52.078;11.650;2023-06-14T05:06:44;1.57;;;1.33;;
14611;SDS011;7392;52.078;11.650;2023-06-14T05:09:14;1.60;;;1.50;;
14611;SDS011;7392;52.078;11.650;2023-06-14T05:11:45;1.50;;;1.40;;
14611;SDS011;7392;52.078;11.650;2023-06-14T05:14:14;1.53;;;1.43;;
14611;SDS011;7392;52.078;11.650;2023-06-14T05:16:42;1.40;;;1.30;;
14611;SDS011;7392;52.078;11.650;2023-06-14T05:19:10;1.90;;;1.70;;
14611;SDS011;7392;52.078;11.650;2023-06-14T05:21:38;1.60;;;1.43;;
14611;SDS011;7392;52.078;11.650;2023-06-14T05:24:09;1.73;;;1.63;;
14611;SDS011;7392;52.078;11.650;2023-06-14T05:26:38;1.83;;;1.60;;
14611;SDS011;7392;52.078;11.650;2023-06-14T05:29:07;1.50;;;1.40;;
14611;SDS011;7392;52.078;11.650;2023-06-14T05:31:35;1.80;;;1.53;;
14611;SDS011;7392;52.078;11.650;2023-06-14T05:34:02;1.73;;;1.63;;
14611;SDS011;7392;52.078;11.650;2023-06-14T05:36:30;1.67;;;1.53;;
14611;SDS011;7392;52.078;11.650;2023-06-14T05:38:58;1.63;;;1.53;;
14611;SDS011;7392;52.078;11.650;2023-06-14T05:41:26;1.70;;;1.60;;
14611;SDS011;7392;52.078;11.650;2023-06-14T05:43:55;1.50;;;1.40;;
14611;SDS011;7392;52.078;11.650;2023-06-14T05:46:24;1.70;;;1.60;;
14611;SDS011;7392;52.078;11.650;2023-06-14T05:48:52;1.60;;;1.50;;
14611;SDS011;7392;52.078;11.650;2023-06-14T05:51:21;1.57;;;1.40;;
14611;SDS011;7392;52.078;11.650;2023-06-14T05:53:52;1.63;;;1.53;;
14611;SDS011;7392;52.078;11.650;2023-06-14T05:56:20;1.70;;;1.50;;
14611;SDS011;7392;52.078;11.650;2023-06-14T05:58:48;1.30;;;1.20;;
14611;SDS011;7392;52.078;11.650;2023-06-14T06:01:17;1.40;;;1.30;;
14611;SDS011;7392;52.078;11.650;2023-06-14T06:03:47;1.50;;;1.40;;
14611;SDS011;7392;52.078;11.650;2023-06-14T06:06:16;1.63;;;1.53;;
14611;SDS011;7392;52.078;11.650;2023-06-14T06:08:43;1.60;;;1.50;;
14611;SDS011;7392;52.078;11.650;2023-06-14T06:11:11;1.90;;;1.67;;
14611;SDS011;7392;52.078;11.650;2023-06-14T06:13:39;1.87;;;1.40;;
14611;SDS011;7392;52.078;11.650;2023-06-14T06:16:08;1.60;;;1.50;;
14611;SDS011;7392;52.078;11.650;2023-06-14T06:18:36;1.80;;;1.70;;
14611;SDS011;7392;52.078;11.650;2023-06-14T06:21:06;2.10;;;1.30;;
14611;SDS011;7392;52.078;11.650;2023-06-14T06:23:34;1.40;;;1.30;;
14611;SDS011;7392;52.078;11.650;2023-06-14T06:26:02;1.63;;;1.53;;
14611;SDS011;7392;52.078;11.650;2023-06-14T06:28:31;1.50;;;1.40;;
14611;SDS011;7392;52.078;11.650;2023-06-14T06:31:02;1.70;;;1.60;;
14611;SDS011;7392;52.078;11.650;2023-06-14T06:33:30;1.60;;;1.50;;
14611;SDS011;7392;52.078;11.650;2023-06-14T06:35:58;1.80;;;1.67;;
14611;SDS011;7392;52.078;11.650;2023-06-14T06:38:27;1.80;;;1.70;;
14611;SDS011;7392;52.078;11.650;2023-06-14T06:40:55;1.43;;;1.33;;
14611;SDS011;7392;52.078;11.650;2023-06-14T06:43:24;1.60;;;1.50;;
14611;SDS011;7392;52.078;11.650;2023-06-14T06:45:52;1.80;;;1.70;;
14611;SDS011;7392;52.078;11.650;2023-06-14T06:48:21;1.60;;;1.50;;
14611;SDS011;7392;52.078;11.650;2023-06-14T06:50:49;1.50;;;1.30;;
14611;SDS011;7392;52.078;11.650;2023-06-14T06:53:17;1.57;;;1.47;;
14611;SDS011;7392;52.078;11.650;2023-06-14T06:56:01;1.70;;;1.60;;
14611;SDS011;7392;52.078;11.650;2023-06-14T06:58:29;1.67;;;1.50;;
14611;SDS011;7392;52.078;11.650;2023-06-14T07:00:57;1.70;;;1.60;;
14611;SDS011;7392;52.078;11.650;2023-06-14T07:03:25;1.77;;;1.63;;
14611;SDS011;7392;52.078;11.650;2023-06-14T07:05:52;1.50;;;1.40;;
14611;SDS011;7392;52.078;11.650;2023-06-14T07:08:20;1.47;;;1.37;;
14611;SDS011;7392;52.078;11.650;2023-06-14T07:10:48;1.60;;;1.50;;
14611;SDS011;7392;52.078;11.650;2023-06-14T07:13:17;1.33;;;1.23;;
14611;SDS011;7392;52.078;11.650;2023-06-14T07:15:45;1.50;;;1.40;;
14611;SDS011;7392;52.078;11.650;2023-06-14T07:18:13;1.97;;;1.73;;
14611;SDS011;7392;52.078;11.650;2023-06-14T07:20:42;2.23;;;1.97;;
14611;SDS011;7392;52.078;11.650;2023-06-14T07:23:11;1.70;;;1.60;;
14611;SDS011;7392;52.078;11.650;2023-06-14T07:25:42;1.50;;;1.40;;
14611;SDS011;7392;52.078;11.650;2023-06-14T07:28:09;2.07;;;1.40;;
14611;SDS011;7392;52.078;11.650;2023-06-14T07:30:38;1.70;;;1.60;;
14611;SDS011;7392;52.078;11.650;2023-06-14T07:33:06;1.50;;;1.40;;
14611;SDS011;7392;52.078;11.650;2023-06-14T07:35:35;1.67;;;1.57;;
14611;SDS011;7392;52.078;11.650;2023-06-14T07:38:06;1.63;;;1.33;;
14611;SDS011;7392;52.078;11.650;2023-06-14T07:40:38;1.50;;;1.40;;
14611;SDS011;7392;52.078;11.650;2023-06-14T07:43:08;1.60;;;1.50;;
14611;SDS011;7392;52.078;11.650;2023-06-14T07:45:35;1.90;;;1.47;;
14611;SDS011;7392;52.078;11.650;2023-06-14T07:48:08;1.70;;;1.57;;
14611;SDS011;7392;52.078;11.650;2023-06-14T07:50:38;1.50;;;1.40;;
14611;SDS011;7392;52.078;11.650;2023-06-14T07:53:07;1.37;;;1.23;;
14611;SDS011;7392;52.078;11.650;2023-06-14T07:55:34;1.67;;;1.10;;
14611;SDS011;7392;52.078;11.650;2023-06-14T07:58:18;1.50;;;1.20;;
14611;SDS011;7392;52.078;11.650;2023-06-14T08:00:46;1.20;;;1.10;;
14611;SDS011;7392;52.078;11.650;2023-06-14T08:03:15;1.30;;;1.10;;
14611;SDS011;7392;52.078;11.650;2023-06-14T08:05:43;1.50;;;1.40;;
14611;SDS011;7392;52.078;11.650;2023-06-14T08:08:10;2.40;;;1.27;;
14611;SDS011;7392;52.078;11.650;2023-06-14T08:10:39;1.60;;;1.50;;
14611;SDS011;7392;52.078;11.650;2023-06-14T08:13:07;1.40;;;1.30;;
14611;SDS011;7392;52.078;11.650;2023-06-14T08:15:36;1.80;;;1.47;;
14611;SDS011;7392;52.078;11.650;2023-06-14T08:18:03;1.43;;;1.33;;
14611;SDS011;7392;52.078;11.650;2023-06-14T08:20:32;1.47;;;1.37;;
14611;SDS011;7392;52.078;11.650;2023-06-14T08:23:02;1.30;;;1.20;;
14611;SDS011;7392;52.078;11.650;2023-06-14T08:25:30;1.40;;;1.30;;
14611;SDS011;7392;52.078;11.650;2023-06-14T08:27:58;1.30;;;1.20;;
14611;SDS011;7392;52.078;11.650;2023-06-14T08:30:26;1.40;;;1.30;;
14611;SDS011;7392;52.078;11.650;2023-06-14T08:32:53;1.50;;;1.40;;
14611;SDS011;7392;52.078;11.650;2023-06-14T08:35:42;1.93;;;1.63;;
14611;SDS011;7392;52.078;11.650;2023-06-14T08:38:11;2.90;;;1.50;;
14611;SDS011;7392;52.078;11.650;2023-06-14T08:40:41;1.60;;;1.50;;
14611;SDS011;7392;52.078;11.650;2023-06-14T08:43:09;2.20;;;1.63;;
14611;SDS011;7392;52.078;11.650;2023-06-14T08:45:38;1.30;;;1.20;;
14611;SDS011;7392;52.078;11.650;2023-06-14T08:48:07;1.70;;;1.50;;
14611;SDS011;7392;52.078;11.650;2023-06-14T08:50:45;1.50;;;1.40;;
14611;SDS011;7392;52.078;11.650;2023-06-14T08:53:18;1.60;;;1.50;;
14611;SDS011;7392;52.078;11.650;2023-06-14T08:55:46;1.50;;;1.40;;
14611;SDS011;7392;52.078;11.650;2023-06-14T08:58:17;1.90;;;1.80;;
14611;SDS011;7392;52.078;11.650;2023-06-14T09:00:45;1.65;;;1.55;;
14611;SDS011;7392;52.078;11.650;2023-06-14T09:03:14;1.50;;;1.40;;
14611;SDS011;7392;52.078;11.650;2023-06-14T09:05:42;2.72;;;1.63;;
14611;SDS011;7392;52.078;11.650;2023-06-14T09:08:11;2.17;;;1.70;;
14611;SDS011;7392;52.078;11.650;2023-06-14T09:10:39;1.97;;;1.83;;
14611;SDS011;7392;52.078;11.650;2023-06-14T09:13:08;1.77;;;1.60;;
14611;SDS011;7392;52.078;11.650;2023-06-14T09:15:35;1.75;;;1.65;;
14611;SDS011;7392;52.078;11.650;2023-06-14T09:18:03;2.10;;;1.48;;
14611;SDS011;7392;52.078;11.650;2023-06-14T09:20:32;1.70;;;1.60;;
14611;SDS011;7392;52.078;11.650;2023-06-14T09:23:01;1.58;;;1.48;;
14611;SDS011;7392;52.078;11.650;2023-06-14T09:25:32;2.28;;;2.05;;
14611;SDS011;7392;52.078;11.650;2023-06-14T09:28:08;1.98;;;1.88;;
14611;SDS011;7392;52.078;11.650;2023-06-14T09:30:37;2.17;;;1.60;;
14611;SDS011;7392;52.078;11.650;2023-06-14T09:33:05;2.30;;;1.70;;
14611;SDS011;7392;52.078;11.650;2023-06-14T09:35:33;2.67;;;1.95;;
14611;SDS011;7392;52.078;11.650;2023-06-14T09:38:02;2.20;;;2.00;;
14611;SDS011;7392;52.078;11.650;2023-06-14T09:40:34;1.95;;;1.75;;
14611;SDS011;7392;52.078;11.650;2023-06-14T09:43:05;2.65;;;1.92;;
14611;SDS011;7392;52.078;11.650;2023-06-14T09:45:35;2.20;;;2.00;;
14611;SDS011;7392;52.078;11.650;2023-06-14T09:48:03;2.30;;;1.98;;
14611;SDS011;7392;52.078;11.650;2023-06-14T09:50:33;2.17;;;1.98;;
14611;SDS011;7392;52.078;11.650;2023-06-14T09:53:02;3.97;;;1.88;;
14611;SDS011;7392;52.078;11.650;2023-06-14T09:55:35;3.08;;;1.98;;
14611;SDS011;7392;52.078;11.650;2023-06-14T09:58:05;2.28;;;1.80;;
14611;SDS011;7392;52.078;11.650;2023-06-14T10:00:35;1.88;;;1.67;;
14611;SDS011;7392;52.078;11.650;2023-06-14T10:03:05;2.90;;;1.80;;
14611;SDS011;7392;52.078;11.650;2023-06-14T10:05:41;1.73;;;1.60;;
14611;SDS011;7392;52.078;11.650;2023-06-14T10:08:13;3.45;;;2.03;;
14611;SDS011;7392;52.078;11.650;2023-06-14T10:10:44;2.83;;;1.70;;
14611;SDS011;7392;52.078;11.650;2023-06-14T10:13:12;1.98;;;1.70;;
14611;SDS011;7392;52.078;11.650;2023-06-14T10:15:43;2.15;;;1.95;;
14611;SDS011;7392;52.078;11.650;2023-06-14T10:18:19;2.10;;;1.90;;
14611;SDS011;7392;52.078;11.650;2023-06-14T10:20:57;3.25;;;2.25;;
14611;SDS011;7392;52.078;11.650;2023-06-14T10:23:31;2.03;;;1.83;;
14611;SDS011;7392;52.078;11.650;2023-06-14T10:26:05;2.63;;;1.80;;
14611;SDS011;7392;52.078;11.650;2023-06-14T10:28:32;2.65;;;1.60;;
14611;SDS011;7392;52.078;11.650;2023-06-14T10:31:05;2.13;;;1.63;;
14611;SDS011;7392;52.078;11.650;2023-06-14T10:33:39;2.22;;;2.03;;
14611;SDS011;7392;52.078;11.650;2023-06-14T10:36:26;1.90;;;1.70;;
14611;SDS011;7392;52.078;11.650;2023-06-14T10:39:06;2.13;;;1.90;;
14611;SDS011;7392;52.078;11.650;2023-06-14T10:41:37;2.05;;;1.70;;
14611;SDS011;7392;52.078;11.650;2023-06-14T10:47:10;1.80;;;1.70;;
14611;SDS011;7392;52.078;11.650;2023-06-14T10:49:50;1.80;;;1.70;;
14611;SDS011;7392;52.078;11.650;2023-06-14T10:52:23;2.00;;;1.80;;
14611;SDS011;7392;52.078;11.650;2023-06-14T10:55:04;4.60;;;1.88;;
14611;SDS011;7392;52.078;11.650;2023-06-14T10:57:38;5.53;;;2.30;;
14611;SDS011;7392;52.078;11.650;2023-06-14T11:00:18;2.15;;;1.92;;
14611;SDS011;7392;52.078;11.650;2023-06-14T11:02:58;2.60;;;1.95;;
14611;SDS011;7392;52.078;11.650;2023-06-14T11:05:52;2.10;;;1.90;;
14611;SDS011;7392;52.078;11.650;2023-06-14T11:08:32;2.33;;;1.92;;
14611;SDS011;7392;52.078;11.650;2023-06-14T11:11:11;2.97;;;2.10;;
14611;SDS011;7392;52.078;11.650;2023-06-14T11:13:44;2.55;;;2.00;;
14611;SDS011;7392;52.078;11.650;2023-06-14T11:16:18;2.60;;;2.00;;
14611;SDS011;7392;52.078;11.650;2023-06-14T11:18:46;1.92;;;1.73;;
14611;SDS011;7392;52.078;11.650;2023-06-14T11:21:16;1.77;;;1.67;;
14611;SDS011;7392;52.078;11.650;2023-06-14T11:23:48;1.85;;;1.75;;
14611;SDS011;7392;52.078;11.650;2023-06-14T11:26:24;3.03;;;2.28;;
14611;SDS011;7392;52.078;11.650;2023-06-14T11:28:57;2.85;;;1.90;;
14611;SDS011;7392;52.078;11.650;2023-06-14T11:31:26;2.08;;;1.98;;
14611;SDS011;7392;52.078;11.650;2023-06-14T11:33:56;3.67;;;1.88;;
14611;SDS011;7392;52.078;11.650;2023-06-14T11:36:26;2.38;;;1.65;;
14611;SDS011;7392;52.078;11.650;2023-06-14T11:39:00;2.13;;;1.85;;
14611;SDS011;7392;52.078;11.650;2023-06-14T11:41:38;1.98;;;1.77;;
14611;SDS011;7392;52.078;11.650;2023-06-14T11:44:08;2.58;;;1.88;;
14611;SDS011;7392;52.078;11.650;2023-06-14T11:46:36;1.90;;;1.80;;
14611;SDS011;7392;52.078;11.650;2023-06-14T11:49:04;2.30;;;1.75;;
14611;SDS011;7392;52.078;11.650;2023-06-14T11:51:36;2.00;;;1.80;;
14611;SDS011;7392;52.078;11.650;2023-06-14T11:54:04;2.10;;;1.90;;
14611;SDS011;7392;52.078;11.650;2023-06-14T11:56:33;2.47;;;1.98;;
14611;SDS011;7392;52.078;11.650;2023-06-14T11:59:02;2.10;;;1.92;;
14611;SDS011;7392;52.078;11.650;2023-06-14T12:01:35;3.30;;;2.20;;
14611;SDS011;7392;52.078;11.650;2023-06-14T12:04:03;2.20;;;2.00;;
14611;SDS011;7392;52.078;11.650;2023-06-14T12:06:31;1.90;;;1.80;;
14611;SDS011;7392;52.078;11.650;2023-06-14T12:09:04;4.28;;;1.95;;
14611;SDS011;7392;52.078;11.650;2023-06-14T12:11:33;2.30;;;1.98;;
14611;SDS011;7392;52.078;11.650;2023-06-14T12:14:03;2.40;;;2.13;;
14611;SDS011;7392;52.078;11.650;2023-06-14T12:16:32;2.78;;;1.80;;
14611;SDS011;7392;52.078;11.650;2023-06-14T12:19:11;4.68;;;1.80;;
14611;SDS011;7392;52.078;11.650;2023-06-14T12:21:40;3.38;;;2.10;;
14611;SDS011;7392;52.078;11.650;2023-06-14T12:24:08;2.47;;;2.20;;
14611;SDS011;7392;52.078;11.650;2023-06-14T12:26:39;2.20;;;2.00;;
14611;SDS011;7392;52.078;11.650;2023-06-14T12:29:08;2.70;;;2.30;;
14611;SDS011;7392;52.078;11.650;2023-06-14T12:31:38;2.10;;;1.92;;
14611;SDS011;7392;52.078;11.650;2023-06-14T12:34:06;2.70;;;2.13;;
14611;SDS011;7392;52.078;11.650;2023-06-14T12:36:34;2.67;;;1.90;;
14611;SDS011;7392;52.078;11.650;2023-06-14T12:39:06;2.33;;;1.67;;
14611;SDS011;7392;52.078;11.650;2023-06-14T12:41:34;2.17;;;1.88;;
14611;SDS011;7392;52.078;11.650;2023-06-14T12:44:03;2.67;;;2.10;;
14611;SDS011;7392;52.078;11.650;2023-06-14T12:46:33;2.53;;;2.25;;
14611;SDS011;7392;52.078;11.650;2023-06-14T12:49:04;4.05;;;1.90;;
14611;SDS011;7392;52.078;11.650;2023-06-14T12:51:33;2.22;;;2.03;;
14611;SDS011;7392;52.078;11.650;2023-06-14T12:54:01;2.00;;;1.80;;
14611;SDS011;7392;52.078;11.650;2023-06-14T12:56:29;2.05;;;1.85;;
14611;SDS011;7392;52.078;11.650;2023-06-14T12:58:57;3.70;;;2.35;;
14611;SDS011;7392;52.078;11.650;2023-06-14T13:01:25;2.45;;;2.10;;
14611;SDS011;7392;52.078;11.650;2023-06-14T13:03:53;2.47;;;2.13;;
14611;SDS011;7392;52.078;11.650;2023-06-14T13:06:23;2.08;;;1.85;;
14611;SDS011;7392;52.078;11.650;2023-06-14T13:08:51;2.33;;;1.90;;
14611;SDS011;7392;52.078;11.650;2023-06-14T13:11:21;1.80;;;1.70;;
14611;SDS011;7392;52.078;11.650;2023-06-14T13:13:48;1.83;;;1.60;;
14611;SDS011;7392;52.078;11.650;2023-06-14T13:16:16;1.80;;;1.70;;
14611;SDS011;7392;52.078;11.650;2023-06-14T13:18:44;1.98;;;1.80;;
14611;SDS011;7392;52.078;11.650;2023-06-14T13:21:12;3.65;;;1.63;;
14611;SDS011;7392;52.078;11.650;2023-06-14T13:23:41;1.83;;;1.60;;
14611;SDS011;7392;52.078;11.650;2023-06-14T13:26:08;2.42;;;1.90;;
14611;SDS011;7392;52.078;11.650;2023-06-14T13:28:36;1.83;;;1.70;;
14611;SDS011;7392;52.078;11.650;2023-06-14T13:31:04;2.78;;;1.95;;
14611;SDS011;7392;52.078;11.650;2023-06-14T13:33:32;2.25;;;2.05;;
14611;SDS011;7392;52.078;11.650;2023-06-14T13:35:59;1.65;;;1.55;;
14611;SDS011;7392;52.078;11.650;2023-06-14T13:38:27;1.80;;;1.70;;
14611;SDS011;7392;52.078;11.650;2023-06-14T13:40:56;2.00;;;1.80;;
14611;SDS011;7392;52.078;11.650;2023-06-14T13:43:24;2.28;;;1.70;;
14611;SDS011;7392;52.078;11.650;2023-06-14T13:45:51;1.60;;;1.50;;
14611;SDS011;7392;52.078;11.650;2023-06-14T13:48:19;1.77;;;1.67;;
14611;SDS011;7392;52.078;11.650;2023-06-14T13:50:46;2.00;;;1.75;;
14611;SDS011;7392;52.078;11.650;2023-06-14T13:53:14;2.40;;;1.90;;
14611;SDS011;7392;52.078;11.650;2023-06-14T13:55:42;1.67;;;1.58;;
14611;SDS011;7392;52.078;11.650;2023-06-14T13:58:12;2.42;;;2.05;;
14611;SDS011;7392;52.078;11.650;2023-06-14T14:00:40;1.85;;;1.75;;
14611;SDS011;7392;52.078;11.650;2023-06-14T14:03:08;4.18;;;1.70;;
14611;SDS011;7392;52.078;11.650;2023-06-14T14:05:36;3.15;;;2.05;;
14611;SDS011;7392;52.078;11.650;2023-06-14T14:08:03;1.98;;;1.88;;
14611;SDS011;7392;52.078;11.650;2023-06-14T14:10:31;2.33;;;1.80;;
14611;SDS011;7392;52.078;11.650;2023-06-14T14:13:09;2.88;;;2.00;;
14611;SDS011;7392;52.078;11.650;2023-06-14T14:15:38;2.53;;;1.80;;
14611;SDS011;7392;52.078;11.650;2023-06-14T14:18:08;2.15;;;1.80;;
14611;SDS011;7392;52.078;11.650;2023-06-14T14:20:38;1.98;;;1.80;;
14611;SDS011;7392;52.078;11.650;2023-06-14T14:23:08;1.50;;;1.40;;
14611;SDS011;7392;52.078;11.650;2023-06-14T14:25:41;1.70;;;1.60;;
14611;SDS011;7392;52.078;11.650;2023-06-14T14:28:09;2.05;;;1.67;;
14611;SDS011;7392;52.078;11.650;2023-06-14T14:30:38;2.33;;;1.80;;
14611;SDS011;7392;52.078;11.650;2023-06-14T14:33:06;2.92;;;1.63;;
14611;SDS011;7392;52.078;11.650;2023-06-14T14:35:34;2.63;;;1.80;;
14611;SDS011;7392;52.078;11.650;2023-06-14T14:38:02;3.22;;;1.58;;
14611;SDS011;7392;52.078;11.650;2023-06-14T14:40:31;2.83;;;1.98;;
14611;SDS011;7392;52.078;11.650;2023-06-14T14:42:58;2.40;;;2.00;;
14611;SDS011;7392;52.078;11.650;2023-06-14T14:45:26;3.25;;;2.55;;
14611;SDS011;7392;52.078;11.650;2023-06-14T14:47:55;2.10;;;1.90;;
14611;SDS011;7392;52.078;11.650;2023-06-14T14:50:23;1.83;;;1.60;;
14611;SDS011;7392;52.078;11.650;2023-06-14T14:52:52;2.28;;;1.73;;
14611;SDS011;7392;52.078;11.650;2023-06-14T14:55:19;1.85;;;1.75;;
14611;SDS011;7392;52.078;11.650;2023-06-14T14:57:47;3.05;;;1.90;;
14611;SDS011;7392;52.078;11.650;2023-06-14T15:00:15;1.75;;;1.65;;
14611;SDS011;7392;52.078;11.650;2023-06-14T15:02:44;5.10;;;2.05;;
14611;SDS011;7392;52.078;11.650;2023-06-14T15:05:13;3.95;;;1.73;;
14611;SDS011;7392;52.078;11.650;2023-06-14T15:07:40;2.13;;;1.77;;